Time;durP1;ratioP1;P1;durP2;ratioP2;P2;SDS_P1;SDS_P2;PMS_P1;PMS_P2;Temp;Humidity;BMP_temperature;BMP_pressure;BME280_temperature;BME280_humidity;BME280_pressure;Samples;Min_cycle;Max_cycle;Signal;HPM_P1;HPM_P2
2023/07/01 00:02:01;;;;;;;0.40;0.40;;;17.80;99.90;;;;;;5134592;28;20035;-71
2023/07/01 00:04:27;;;;;;;0.30;0.30;;;17.90;99.90;;;;;;5134500;28;20570;-71
2023/07/01 00:06:54;;;;;;;0.40;0.40;;;17.90;99.90;;;;;;5134835;28;20049;-70
2023/07/01 00:09:21;;;;;;;;;;;17.90;99.90;;;;;;5134888;28;20280;-71
2023/07/01 00:11:47;;;;;;;0.30;0.30;;;17.80;99.90;;;;;;5134510;28;19930;-71
2023/07/01 00:14:12;;;;;;;0.33;0.33;;;17.80;99.90;;;;;;5134454;28;20039;-71
2023/07/01 00:16:39;;;;;;;0.40;0.40;;;17.90;99.90;;;;;;5134918;28;20118;-71
2023/07/01 00:19:06;;;;;;;0.30;0.30;;;17.80;99.90;;;;;;5134978;28;20039;-70
2023/07/01 00:21:31;;;;;;;0.30;0.30;;;17.90;99.90;;;;;;5134407;28;20459;-71
2023/07/01 00:23:57;;;;;;;0.30;0.30;;;17.80;99.90;;;;;;5134425;28;20095;-71
2023/07/01 00:26:23;;;;;;;1.13;1.13;;;17.80;99.90;;;;;;5134053;28;20451;-71
2023/07/01 00:28:48;;;;;;;0.30;0.30;;;17.80;99.90;;;;;;5134331;28;20058;-71
2023/07/01 00:31:14;;;;;;;0.30;0.30;;;17.90;99.90;;;;;;5134059;28;20042;-71
2023/07/01 00:33:39;;;;;;;0.30;0.30;;;17.90;99.90;;;;;;5134263;28;20035;-70
2023/07/01 00:36:05;;;;;;;0.30;0.30;;;17.90;99.90;;;;;;5134294;28;20032;-71
2023/07/01 00:38:31;;;;;;;0.30;0.30;;;17.90;99.90;;;;;;5115732;28;20041;-71
2023/07/01 00:40:56;;;;;;;0.30;0.30;;;17.90;99.90;;;;;;5134226;28;20039;-70
2023/07/01 00:43:22;;;;;;;0.40;0.40;;;17.90;99.90;;;;;;5134199;28;20039;-71
2023/07/01 00:45:47;;;;;;;0.53;0.53;;;17.80;99.90;;;;;;5133969;28;20493;-71
2023/07/01 00:48:23;;;;;;;0.30;0.30;;;17.90;99.90;;;;;;5134698;27;20039;-70
2023/07/01 00:50:49;;;;;;;0.38;0.38;;;17.90;99.90;;;;;;5138058;27;20043;-71
2023/07/01 00:53:16;;;;;;;0.40;0.40;;;17.80;99.90;;;;;;5137927;27;20035;-70
2023/07/01 00:55:41;;;;;;;0.43;0.43;;;17.80;99.90;;;;;;5137866;27;20054;-71
2023/07/01 00:58:07;;;;;;;0.40;0.40;;;17.80;99.90;;;;;;5137721;27;20031;-70
2023/07/01 01:00:32;;;;;;;0.30;0.30;;;17.80;99.90;;;;;;5137788;27;20102;-71
2023/07/01 01:03:21;;;;;;;0.30;0.30;;;17.80;99.90;;;;;;5137779;27;20134;-71
2023/07/01 01:05:56;;;;;;;0.40;0.40;;;17.90;99.90;;;;;;5137915;27;20039;-70
2023/07/01 01:08:31;;;;;;;0.30;0.30;;;17.90;99.90;;;;;;5137570;27;20031;-71
2023/07/01 01:11:00;;;;;;;0.30;0.30;;;17.90;99.90;;;;;;5137843;27;20382;-71
2023/07/01 01:13:28;;;;;;;0.30;0.30;;;17.90;99.90;;;;;;5137492;27;20122;-70
2023/07/01 01:15:56;;;;;;;0.30;0.30;;;17.90;99.90;;;;;;5137414;27;20050;-71
2023/07/01 01:18:24;;;;;;;0.85;0.73;;;18.00;99.90;;;;;;5137377;27;20523;-71
2023/07/01 01:20:51;;;;;;;0.40;0.40;;;18.00;99.90;;;;;;5137249;27;20051;-70
2023/07/01 01:23:25;;;;;;;0.40;0.40;;;18.00;99.90;;;;;;5137267;27;20039;-71
2023/07/01 01:26:05;;;;;;;0.82;0.82;;;18.00;99.90;;;;;;5137235;27;20043;-70
2023/07/01 01:28:32;;;;;;;0.30;0.30;;;18.00;99.90;;;;;;5137219;27;20046;-71
2023/07/01 01:30:58;;;;;;;0.40;0.40;;;18.00;99.90;;;;;;5136860;27;20046;-70
2023/07/01 01:33:25;;;;;;;0.32;0.32;;;18.10;99.90;;;;;;5137218;27;20045;-70
2023/07/01 01:35:51;;;;;;;0.40;0.40;;;18.10;99.90;;;;;;5153237;27;20039;-71
2023/07/01 01:38:25;;;;;;;0.40;0.40;;;18.10;99.90;;;;;;5137700;27;20096;-71
2023/07/01 01:40:59;;;;;;;0.30;0.30;;;18.10;99.90;;;;;;5137052;27;20031;-70
2023/07/01 01:43:34;;;;;;;0.30;0.30;;;18.10;99.90;;;;;;5137203;27;20381;-71
2023/07/01 01:46:02;;;;;;;0.38;0.38;;;18.10;99.90;;;;;;5136937;27;20031;-71
2023/07/01 01:48:28;;;;;;;0.40;0.40;;;18.10;99.90;;;;;;5136698;27;20041;-72
2023/07/01 01:50:56;;;;;;;0.65;0.65;;;18.10;99.90;;;;;;5136799;27;20043;-72
2023/07/01 01:53:24;;;;;;;0.40;0.40;;;18.10;99.90;;;;;;5136776;27;20110;-72
2023/07/01 01:55:50;;;;;;;0.30;0.30;;;18.10;99.90;;;;;;5136644;27;20046;-71
2023/07/01 01:58:16;;;;;;;0.50;0.50;;;18.10;99.90;;;;;;5136864;27;20046;-71
2023/07/01 02:00:44;;;;;;;0.40;0.40;;;18.10;99.90;;;;;;5135543;27;20038;-70
2023/07/01 02:03:10;;;;;;;0.30;0.30;;;18.10;99.90;;;;;;5136771;27;20111;-71
2023/07/01 02:05:36;;;;;;;0.77;0.77;;;18.00;99.90;;;;;;5118384;27;20063;-70
2023/07/01 02:08:03;;;;;;;0.67;0.67;;;18.00;99.90;;;;;;5136400;27;20039;-70
2023/07/01 02:10:29;;;;;;;0.60;0.60;;;18.00;99.90;;;;;;5136239;27;20093;-70
2023/07/01 02:12:54;;;;;;;0.30;0.30;;;18.00;99.90;;;;;;5136351;27;20491;-71
2023/07/01 02:15:20;;;;;;;0.30;0.30;;;17.90;99.90;;;;;;5136360;27;20405;-71
2023/07/01 02:17:46;;;;;;;0.40;0.40;;;17.90;99.90;;;;;;5136622;27;20037;-71
2023/07/01 02:20:12;;;;;;;0.30;0.30;;;17.80;99.90;;;;;;5136220;27;20389;-71
2023/07/01 02:22:38;;;;;;;0.40;0.40;;;17.70;99.90;;;;;;5117931;27;20127;-70
2023/07/01 02:25:05;;;;;;;0.40;0.40;;;17.70;99.90;;;;;;5136088;27;20031;-70
2023/07/01 02:27:31;;;;;;;0.40;0.40;;;17.60;99.90;;;;;;5135933;27;20083;-71
2023/07/01 02:29:57;;;;;;;0.52;0.52;;;17.60;99.90;;;;;;5135950;27;20043;-70
2023/07/01 02:32:24;;;;;;;0.40;0.40;;;17.40;99.90;;;;;;5135874;27;20554;-70
2023/07/01 02:34:49;;;;;;;0.68;0.68;;;17.30;99.90;;;;;;5117771;27;20049;-71
2023/07/01 02:37:18;;;;;;;0.30;0.30;;;17.30;99.90;;;;;;5136369;27;20035;-71
2023/07/01 02:39:45;;;;;;;0.40;0.40;;;17.20;99.90;;;;;;5135669;27;20496;-71
2023/07/01 02:42:11;;;;;;;0.40;0.40;;;17.10;99.90;;;;;;5135889;27;20076;-70
2023/07/01 02:44:37;;;;;;;0.40;0.40;;;17.10;99.90;;;;;;5135783;27;20035;-71
2023/07/01 02:47:03;;;;;;;0.40;0.40;;;17.00;99.90;;;;;;5135410;27;20077;-71
2023/07/01 02:49:28;;;;;;;0.50;0.50;;;17.00;99.90;;;;;;5117241;27;20501;-70
2023/07/01 02:51:54;;;;;;;3.13;2.83;;;17.00;99.90;;;;;;5135629;27;20035;-70
2023/07/01 02:54:19;;;;;;;0.37;0.37;;;16.90;99.90;;;;;;5135486;27;20421;-71
2023/07/01 02:56:45;;;;;;;0.40;0.40;;;17.00;99.90;;;;;;5135234;27;20035;-71
2023/07/01 02:59:11;;;;;;;0.40;0.40;;;16.90;99.90;;;;;;5135482;27;20393;-71
2023/07/01 03:01:37;;;;;;;0.40;0.40;;;16.90;99.90;;;;;;5116910;27;20145;-71
2023/07/01 03:04:06;;;;;;;0.40;0.40;;;17.00;99.90;;;;;;5135454;27;20603;-71
2023/07/01 03:06:31;;;;;;;0.30;0.30;;;17.00;99.90;;;;;;5135246;27;20092;-70
2023/07/01 03:08:57;;;;;;;1.43;1.30;;;17.00;99.90;;;;;;5135596;27;20404;-71
2023/07/01 03:11:23;;;;;;;0.40;0.40;;;17.00;99.90;;;;;;5134799;27;20479;-71
2023/07/01 03:13:48;;;;;;;0.50;0.50;;;17.00;99.90;;;;;;5135216;27;20035;-71
2023/07/01 03:16:14;;;;;;;0.40;0.40;;;17.10;99.90;;;;;;5135022;27;20039;-71
2023/07/01 03:18:40;;;;;;;0.40;0.40;;;17.10;99.90;;;;;;5135132;27;20039;-70
2023/07/01 03:21:05;;;;;;;0.50;0.50;;;17.10;99.90;;;;;;5135050;27;20031;-71
2023/07/01 03:23:31;;;;;;;0.57;0.57;;;17.10;99.90;;;;;;5116344;27;20135;-71
2023/07/01 03:25:57;;;;;;;0.40;0.40;;;17.10;99.90;;;;;;5116997;27;20050;-70
2023/07/01 03:28:23;;;;;;;0.35;0.35;;;17.10;99.90;;;;;;5134642;27;20459;-71
2023/07/01 03:30:48;;;;;;;0.40;0.40;;;17.00;99.90;;;;;;5134815;27;20082;-71
2023/07/01 03:33:17;;;;;;;0.30;0.30;;;17.00;99.90;;;;;;5134909;27;20043;-71
2023/07/01 03:35:42;;;;;;;0.40;0.40;;;16.90;99.90;;;;;;5134907;27;20074;-71
2023/07/01 03:38:08;;;;;;;0.40;0.40;;;16.90;99.90;;;;;;5134925;27;20058;-71
2023/07/01 03:40:34;;;;;;;0.50;0.50;;;16.90;99.90;;;;;;5116659;27;20027;-70
2023/07/01 03:42:59;;;;;;;0.30;0.30;;;16.80;99.90;;;;;;5134692;27;20065;-71
2023/07/01 03:45:25;;;;;;;0.30;0.30;;;16.80;99.90;;;;;;5134634;27;20049;-71
2023/07/01 03:47:50;;;;;;;0.40;0.40;;;16.80;99.90;;;;;;5134559;27;20367;-71
2023/07/01 03:50:16;;;;;;;0.40;0.40;;;16.80;99.90;;;;;;5134654;28;20179;-71
2023/07/01 03:52:42;;;;;;;0.40;0.40;;;16.90;99.90;;;;;;5134628;28;20043;-71
2023/07/01 03:55:14;;;;;;;0.30;0.30;;;16.90;99.90;;;;;;5134626;28;20047;-71
2023/07/01 03:57:40;;;;;;;0.40;0.40;;;16.90;99.90;;;;;;5134479;28;20050;-71
2023/07/01 04:00:17;;;;;;;0.40;0.40;;;16.80;99.90;;;;;;5134596;28;20035;-70
2023/07/01 04:02:46;;;;;;;2.55;2.25;;;16.80;99.90;;;;;;5117742;28;20090;-71
2023/07/01 04:05:12;;;;;;;0.40;0.40;;;16.70;99.90;;;;;;5134582;28;20039;-70
2023/07/01 04:07:42;;;;;;;0.37;0.37;;;16.70;99.90;;;;;;5134554;28;20036;-70
2023/07/01 04:10:10;;;;;;;0.40;0.40;;;16.70;99.90;;;;;;5134682;28;20043;-70
2023/07/01 04:12:37;;;;;;;0.32;0.32;;;16.70;99.90;;;;;;5134938;28;20122;-71
2023/07/01 04:15:10;;;;;;;0.55;0.55;;;16.70;99.90;;;;;;5134448;28;20491;-70
2023/07/01 04:17:41;;;;;;;0.75;0.75;;;16.60;99.90;;;;;;5134796;28;20062;-70
2023/07/01 04:20:09;;;;;;;0.40;0.40;;;16.60;99.90;;;;;;5134559;28;20031;-70
2023/07/01 04:22:38;;;;;;;0.88;0.88;;;16.50;99.90;;;;;;5134402;27;20501;-70
2023/07/01 04:25:04;;;;;;;0.40;0.40;;;16.50;99.90;;;;;;5138085;27;20031;-70
2023/07/01 04:27:30;;;;;;;0.50;0.50;;;16.50;99.90;;;;;;5138858;27;20130;-70
2023/07/01 04:29:56;;;;;;;0.40;0.40;;;16.40;99.90;;;;;;5138764;27;20137;-70
2023/07/01 04:32:23;;;;;;;0.50;0.50;;;16.40;99.90;;;;;;5138679;27;20129;-70
2023/07/01 04:34:48;;;;;;;;;;;16.20;99.90;;;;;;5138719;27;20047;-70
2023/07/01 04:37:14;;;;;;;0.40;0.40;;;16.20;99.90;;;;;;5138296;27;20011;-71
2023/07/01 04:39:41;;;;;;;0.40;0.40;;;16.20;99.90;;;;;;5138184;27;20039;-70
2023/07/01 04:42:06;;;;;;;0.40;0.40;;;16.10;99.90;;;;;;5138191;27;20054;-70
2023/07/01 04:44:32;;;;;;;0.40;0.40;;;16.10;99.90;;;;;;5137888;27;20375;-70
2023/07/01 04:46:58;;;;;;;0.40;0.40;;;16.10;99.90;;;;;;5138005;27;20035;-70
2023/07/01 04:49:24;;;;;;;0.40;0.40;;;16.10;99.90;;;;;;5138047;27;20092;-70
2023/07/01 04:51:49;;;;;;;0.60;0.60;;;16.10;99.90;;;;;;5138020;27;20065;-70
2023/07/01 04:54:15;;;;;;;0.50;0.50;;;16.00;99.90;;;;;;5119711;27;20370;-69
2023/07/01 04:56:41;;;;;;;0.40;0.40;;;15.90;99.90;;;;;;5137972;27;20039;-71
2023/07/01 04:59:06;;;;;;;0.50;0.50;;;15.90;99.90;;;;;;5137828;27;20039;-71
2023/07/01 05:01:32;;;;;;;1.10;1.00;;;15.90;99.90;;;;;;5137761;27;20035;-70
2023/07/01 05:03:58;;;;;;;0.40;0.40;;;15.90;99.90;;;;;;5130472;27;20047;-70
2023/07/01 05:06:24;;;;;;;0.80;0.80;;;16.00;99.90;;;;;;5137786;27;20096;-70
2023/07/01 05:08:49;;;;;;;0.73;0.63;;;15.90;99.90;;;;;;5137454;27;20125;-70
2023/07/01 05:11:15;;;;;;;0.40;0.40;;;15.90;99.90;;;;;;5137339;27;20035;-70
2023/07/01 05:13:40;;;;;;;0.40;0.40;;;15.90;99.90;;;;;;5137586;27;20053;-70
2023/07/01 05:16:06;;;;;;;1.15;1.10;;;15.90;99.90;;;;;;5137616;27;20039;-70
2023/07/01 05:18:32;;;;;;;0.40;0.40;;;15.90;99.90;;;;;;5137357;27;20035;-70
2023/07/01 05:20:57;;;;;;;0.40;0.40;;;15.90;99.90;;;;;;5137453;27;20034;-70
2023/07/01 05:23:23;;;;;;;0.40;0.40;;;15.90;99.90;;;;;;5137443;27;20087;-70
2023/07/01 05:25:49;;;;;;;0.33;0.33;;;15.90;99.90;;;;;;5118865;27;20074;-70
2023/07/01 05:28:15;;;;;;;0.40;0.40;;;15.90;99.90;;;;;;5137204;27;20420;-70
2023/07/01 05:30:44;;;;;;;0.40;0.40;;;15.90;99.90;;;;;;5137166;27;20060;-70
2023/07/01 05:33:10;;;;;;;0.40;0.40;;;15.90;99.90;;;;;;5137142;27;20481;-70
2023/07/01 05:35:36;;;;;;;;;;;16.00;99.90;;;;;;5137683;27;20047;-70
2023/07/01 05:38:12;;;;;;;0.30;0.30;;;16.00;99.90;;;;;;5137108;27;20048;-70
2023/07/01 05:40:39;;;;;;;0.50;0.50;;;17.00;99.90;;;;;;5137021;27;20043;-70
2023/07/01 05:43:05;;;;;;;;;;;16.00;99.90;;;;;;5137559;27;20046;-70
2023/07/01 05:45:30;;;;;;;0.30;0.30;;;16.10;99.90;;;;;;5136937;27;19916;-70
2023/07/01 05:47:57;;;;;;;0.40;0.40;;;16.10;99.90;;;;;;5136789;27;20039;-70
2023/07/01 05:50:23;;;;;;;0.55;0.55;;;16.10;99.90;;;;;;5136992;27;20035;-70
2023/07/01 05:52:48;;;;;;;0.40;0.40;;;16.20;99.90;;;;;;5136790;27;20031;-70
2023/07/01 05:55:14;;;;;;;0.50;0.50;;;16.20;99.90;;;;;;5136704;27;20288;-70
2023/07/01 05:57:40;;;;;;;0.40;0.40;;;16.20;99.90;;;;;;5136681;27;20042;-70
2023/07/01 06:00:07;;;;;;;0.37;0.37;;;16.20;99.90;;;;;;5137085;27;20117;-70
2023/07/01 06:02:33;;;;;;;1.60;1.50;;;16.30;99.90;;;;;;5136845;27;20039;-70
2023/07/01 06:05:01;;;;;;;0.40;0.40;;;16.30;99.90;;;;;;5136509;27;20047;-70
2023/07/01 06:07:26;;;;;;;0.40;0.40;;;16.40;99.90;;;;;;5136337;27;20035;-70
2023/07/01 06:09:52;;;;;;;0.50;0.50;;;16.40;99.90;;;;;;5136156;27;20111;-70
2023/07/01 06:12:18;;;;;;;0.40;0.40;;;16.40;99.90;;;;;;5136451;27;20039;-70
2023/07/01 06:14:43;;;;;;;0.40;0.40;;;16.50;99.90;;;;;;5152462;27;20035;-70
2023/07/01 06:17:09;;;;;;;0.63;0.63;;;16.50;99.90;;;;;;5136373;27;20176;-70
2023/07/01 06:19:35;;;;;;;0.40;0.40;;;16.50;99.90;;;;;;5136322;27;20038;-70
2023/07/01 06:22:00;;;;;;;0.40;0.40;;;16.60;99.90;;;;;;5136255;27;20046;-70
2023/07/01 06:24:26;;;;;;;0.43;0.43;;;16.60;99.90;;;;;;5136435;27;20046;-70
2023/07/01 06:26:51;;;;;;;0.40;0.40;;;16.60;99.90;;;;;;5136078;27;20041;-70
2023/07/01 06:29:17;;;;;;;0.50;0.50;;;16.60;99.90;;;;;;5136109;27;20164;-70
2023/07/01 06:31:43;;;;;;;0.40;0.40;;;16.70;99.90;;;;;;5118083;27;20039;-70
2023/07/01 06:34:13;;;;;;;0.50;0.50;;;16.70;99.90;;;;;;5135999;27;20088;-70
2023/07/01 06:36:39;;;;;;;0.50;0.50;;;16.60;99.90;;;;;;5135959;27;20433;-70
2023/07/01 06:39:04;;;;;;;0.40;0.40;;;16.70;99.90;;;;;;5135613;27;20050;-71
2023/07/01 06:41:30;;;;;;;0.40;0.40;;;16.70;99.90;;;;;;5136291;27;20039;-70
2023/07/01 06:43:56;;;;;;;0.40;0.40;;;16.70;99.90;;;;;;5135847;27;20027;-70
2023/07/01 06:46:21;;;;;;;0.40;0.40;;;16.60;99.90;;;;;;5135322;27;20094;-70
2023/07/01 06:48:47;;;;;;;0.50;0.50;;;16.70;99.90;;;;;;5135583;27;20039;-70
2023/07/01 06:51:13;;;;;;;0.40;0.40;;;16.70;99.90;;;;;;5135421;27;20035;-70
2023/07/01 06:53:40;;;;;;;0.50;0.50;;;16.70;99.90;;;;;;5135543;27;20038;-71
2023/07/01 06:56:06;;;;;;;0.50;0.50;;;16.60;99.90;;;;;;5135597;27;20035;-71
2023/07/01 06:58:32;;;;;;;0.40;0.40;;;16.60;99.90;;;;;;5135509;27;20042;-71
2023/07/01 07:00:58;;;;;;;0.30;0.30;;;16.60;99.90;;;;;;5135696;27;20047;-71
2023/07/01 07:03:23;;;;;;;0.30;0.30;;;16.60;99.90;;;;;;5135433;27;20049;-71
2023/07/01 07:05:52;;;;;;;0.40;0.40;;;16.60;99.90;;;;;;5135334;27;20051;-71
2023/07/01 07:08:17;;;;;;;0.40;0.40;;;16.50;99.90;;;;;;5135162;27;20475;-71
2023/07/01 07:10:43;;;;;;;0.40;0.40;;;16.60;99.90;;;;;;5135295;27;20042;-71
2023/07/01 07:13:09;;;;;;;0.47;0.47;;;16.60;99.90;;;;;;5135768;27;20130;-71
2023/07/01 07:15:35;;;;;;;5.72;0.75;;;16.50;99.90;;;;;;5135439;27;20039;-71
2023/07/01 07:18:01;;;;;;;0.30;0.30;;;16.60;99.90;;;;;;5135210;27;20096;-70
2023/07/01 07:20:27;;;;;;;1.13;0.77;;;16.60;99.90;;;;;;5135317;27;20039;-70
2023/07/01 07:22:52;;;;;;;0.40;0.40;;;16.60;99.90;;;;;;5135001;27;20542;-70
2023/07/01 07:25:18;;;;;;;0.40;0.40;;;16.60;99.90;;;;;;5135174;27;20459;-70
2023/07/01 07:27:44;;;;;;;0.40;0.40;;;16.60;99.90;;;;;;5151060;27;20038;-70
2023/07/01 07:30:13;;;;;;;0.40;0.40;;;16.60;99.90;;;;;;5135042;27;20074;-70
2023/07/01 07:32:38;;;;;;;0.40;0.40;;;16.60;99.90;;;;;;5135217;27;20042;-70
2023/07/01 07:35:04;;;;;;;1.07;0.67;;;16.70;99.90;;;;;;5134752;27;20039;-71
2023/07/01 07:37:30;;;;;;;0.30;0.30;;;16.70;99.90;;;;;;5134875;27;20066;-70
2023/07/01 07:39:58;;;;;;;0.40;0.40;;;16.70;99.90;;;;;;5134880;27;20471;-71
2023/07/01 07:42:24;;;;;;;0.30;0.30;;;16.70;99.90;;;;;;5134854;27;20039;-70
2023/07/01 07:44:50;;;;;;;0.30;0.30;;;16.70;99.90;;;;;;5134758;27;20047;-70
2023/07/01 07:47:16;;;;;;;0.50;0.50;;;16.80;99.90;;;;;;5134766;27;20035;-71
2023/07/01 07:49:41;;;;;;;0.40;0.40;;;16.80;99.90;;;;;;5134709;27;20522;-71
2023/07/01 07:52:07;;;;;;;0.30;0.30;;;16.80;99.90;;;;;;5134677;28;20046;-71
2023/07/01 07:54:33;;;;;;;0.30;0.30;;;16.90;99.90;;;;;;5116771;28;20047;-70
2023/07/01 07:56:58;;;;;;;0.30;0.30;;;16.90;99.90;;;;;;5134679;27;20409;-71
2023/07/01 07:59:26;;;;;;;0.40;0.40;;;16.80;99.90;;;;;;5137477;27;20051;-71
2023/07/01 08:01:53;;;;;;;0.30;0.30;;;16.90;99.90;;;;;;5139142;27;20035;-71
2023/07/01 08:04:18;;;;;;;0.55;0.55;;;16.90;99.90;;;;;;5138556;27;20054;-71
2023/07/01 08:06:44;;;;;;;0.30;0.30;;;16.90;99.90;;;;;;5120397;27;20118;-71
2023/07/01 08:09:10;;;;;;;0.93;0.87;;;16.90;99.90;;;;;;5138580;27;20336;-71
2023/07/01 08:11:35;;;;;;;0.30;0.30;;;16.90;99.90;;;;;;5138830;27;20075;-71
2023/07/01 08:14:01;;;;;;;0.30;0.30;;;17.00;99.90;;;;;;5138864;27;20027;-70
2023/07/01 08:16:27;;;;;;;0.30;0.30;;;16.90;99.90;;;;;;5138723;27;20473;-71
2023/07/01 08:18:52;;;;;;;0.30;0.30;;;17.00;99.90;;;;;;5138728;27;20066;-71
2023/07/01 08:21:18;;;;;;;0.30;0.30;;;17.00;99.90;;;;;;5138629;27;20070;-71
2023/07/01 08:23:43;;;;;;;0.40;0.40;;;17.10;99.90;;;;;;5138572;27;20523;-71
2023/07/01 08:26:09;;;;;;;0.40;0.40;;;17.10;99.90;;;;;;5138519;27;20050;-71
2023/07/01 08:28:35;;;;;;;0.40;0.40;;;17.20;99.90;;;;;;5138465;27;20035;-71
2023/07/01 08:31:00;;;;;;;0.40;0.40;;;17.30;99.90;;;;;;5120140;27;20031;-71
2023/07/01 08:33:26;;;;;;;0.30;0.30;;;17.30;99.90;;;;;;5138328;27;20039;-71
2023/07/01 08:35:52;;;;;;;0.40;0.40;;;17.30;99.90;;;;;;5138287;27;20039;-71
2023/07/01 08:38:18;;;;;;;0.30;0.30;;;17.30;99.90;;;;;;5137984;27;20035;-71
2023/07/01 08:40:46;;;;;;;0.30;0.30;;;17.40;99.90;;;;;;5120326;27;20363;-71
2023/07/01 08:43:12;;;;;;;0.30;0.30;;;17.30;99.90;;;;;;5138106;27;20482;-71
2023/07/01 08:45:38;;;;;;;0.40;0.40;;;17.30;99.90;;;;;;5138374;27;20047;-71
2023/07/01 08:48:06;;;;;;;0.75;0.75;;;17.30;99.90;;;;;;5137912;27;20117;-71
2023/07/01 08:50:55;;;;;;;0.30;0.30;;;17.30;99.90;;;;;;5119728;27;20051;-71
2023/07/01 08:53:21;;;;;;;0.30;0.30;;;17.30;99.90;;;;;;5137932;27;20076;-71
2023/07/01 08:55:47;;;;;;;0.50;0.50;;;17.30;99.90;;;;;;5119228;27;20035;-71
2023/07/01 08:58:13;;;;;;;0.30;0.30;;;17.20;99.90;;;;;;5137861;27;20092;-71
2023/07/01 09:00:40;;;;;;;0.40;0.40;;;17.30;99.90;;;;;;5137971;27;20043;-71
2023/07/01 09:03:06;;;;;;;0.30;0.30;;;17.20;99.90;;;;;;5137784;27;20083;-70
2023/07/01 09:05:32;;;;;;;0.30;0.30;;;17.20;99.90;;;;;;5138172;27;20375;-71
2023/07/01 09:07:57;;;;;;;0.40;0.40;;;17.20;99.90;;;;;;5137692;27;20031;-71
2023/07/01 09:10:23;;;;;;;0.40;0.40;;;17.30;99.90;;;;;;5137192;27;20061;-70
2023/07/01 09:12:50;;;;;;;0.30;0.30;;;17.30;99.90;;;;;;5137679;27;20035;-70
2023/07/01 09:15:16;;;;;;;0.40;0.40;;;17.40;99.90;;;;;;5137521;27;20042;-71
2023/07/01 09:17:42;;;;;;;0.30;0.30;;;17.30;99.90;;;;;;5137455;27;20047;-69
2023/07/01 09:20:08;;;;;;;0.93;0.93;;;17.40;99.90;;;;;;5138135;27;20035;-70
2023/07/01 09:22:38;;;;;;;0.30;0.30;;;17.40;99.90;;;;;;5137465;27;20039;-70
2023/07/01 09:25:05;;;;;;;0.40;0.40;;;17.40;99.90;;;;;;5138010;27;20039;-70
2023/07/01 09:27:56;;;;;;;0.40;0.40;;;17.40;99.90;;;;;;5137256;27;20039;-71
2023/07/01 09:30:24;;;;;;;0.40;0.40;;;17.50;99.90;;;;;;5133295;27;20047;-70
2023/07/01 09:32:50;;;;;;;0.32;0.32;;;17.50;99.90;;;;;;5137594;27;20039;-70
2023/07/01 09:35:16;;;;;;;0.40;0.40;;;17.60;99.90;;;;;;5137350;27;20031;-70
2023/07/01 09:37:42;;;;;;;0.30;0.30;;;17.60;99.90;;;;;;5136944;27;20074;-70
2023/07/01 09:40:18;;;;;;;0.40;0.40;;;17.70;99.90;;;;;;5136844;27;20424;-70
2023/07/01 09:42:56;;;;;;;0.40;0.40;;;17.80;99.90;;;;;;5137562;27;20084;-70
2023/07/01 09:45:22;;;;;;;0.40;0.40;;;17.80;99.90;;;;;;5136949;27;20047;-70
2023/07/01 09:47:54;;;;;;;0.50;0.50;;;17.90;99.90;;;;;;5136926;27;20474;-70
2023/07/01 09:50:24;;;;;;;0.40;0.40;;;17.90;99.90;;;;;;5136854;27;20043;-70
2023/07/01 09:52:52;;;;;;;0.40;0.40;;;17.90;99.90;;;;;;5137177;27;20042;-70
2023/07/01 09:55:18;;;;;;;0.40;0.40;;;17.90;99.90;;;;;;5136668;27;20118;-70
2023/07/01 09:57:44;;;;;;;0.30;0.30;;;17.90;99.90;;;;;;5136772;27;20118;-70
2023/07/01 10:00:10;;;;;;;0.40;0.40;;;17.90;99.90;;;;;;5136542;27;20039;-70
2023/07/01 10:02:36;;;;;;;0.50;0.50;;;17.80;99.90;;;;;;5136675;27;20423;-70
2023/07/01 10:05:02;;;;;;;0.53;0.50;;;17.90;99.90;;;;;;5136354;27;20065;-70
2023/07/01 10:07:27;;;;;;;0.83;0.83;;;17.90;99.90;;;;;;5136435;27;20482;-70
2023/07/01 10:09:53;;;;;;;1.10;1.03;;;17.90;99.90;;;;;;5136413;27;20028;-70
2023/07/01 10:12:21;;;;;;;0.30;0.30;;;17.90;99.90;;;;;;5136086;27;20039;-70
2023/07/01 10:14:51;;;;;;;0.40;0.40;;;17.90;99.90;;;;;;5136965;27;20039;-70
2023/07/01 10:17:17;;;;;;;0.40;0.40;;;17.90;99.90;;;;;;5136344;27;20092;-70
2023/07/01 10:19:46;;;;;;;0.30;0.30;;;18.00;99.90;;;;;;5136682;27;20466;-70
2023/07/01 10:22:22;;;;;;;0.50;0.50;;;18.00;99.90;;;;;;5135393;27;20423;-70
2023/07/01 10:24:56;;;;;;;0.40;0.40;;;18.00;99.90;;;;;;5118179;27;20074;-70
2023/07/01 10:27:40;;;;;;;0.38;0.38;;;18.00;99.90;;;;;;5136005;27;20145;-70
2023/07/01 10:30:07;;;;;;;0.50;0.50;;;17.90;99.90;;;;;;5135932;27;20043;-70
2023/07/01 10:32:33;;;;;;;0.40;0.40;;;17.90;99.90;;;;;;5135728;27;20471;-70
2023/07/01 10:34:59;;;;;;;0.40;0.40;;;18.00;99.90;;;;;;5136073;27;20050;-70
2023/07/01 10:37:26;;;;;;;0.30;0.30;;;18.10;99.90;;;;;;5135595;27;20439;-70
2023/07/01 10:39:53;;;;;;;0.40;0.40;;;18.20;99.90;;;;;;5135542;27;20470;-70
2023/07/01 10:42:33;;;;;;;0.40;0.40;;;18.30;99.90;;;;;;5135805;27;20046;-70
2023/07/01 10:45:11;;;;;;;0.40;0.40;;;18.40;99.90;;;;;;5135849;27;20047;-70
2023/07/01 10:48:00;;;;;;;0.40;0.40;;;18.50;99.90;;;;;;5135649;27;20077;-70
2023/07/01 10:50:25;;;;;;;0.40;0.40;;;18.40;99.90;;;;;;5135082;27;20038;-70
2023/07/01 10:52:57;;;;;;;0.30;0.30;;;18.50;99.90;;;;;;5135911;27;20468;-70
2023/07/01 10:55:43;;;;;;;0.40;0.40;;;18.50;99.90;;;;;;5135728;27;20450;-70
2023/07/01 10:58:27;;;;;;;0.40;0.40;;;18.60;99.90;;;;;;5135532;27;20445;-70
2023/07/01 11:00:59;;;;;;;0.40;0.40;;;18.70;99.90;;;;;;5135900;27;20383;-70
2023/07/01 11:03:36;;;;;;;0.40;0.40;;;18.70;99.90;;;;;;5135858;27;20204;-70
2023/07/01 11:06:03;;;;;;;0.40;0.40;;;18.70;99.90;;;;;;5135998;27;20043;-70
2023/07/01 11:08:31;;;;;;;0.40;0.40;;;18.70;99.90;;;;;;5135186;27;20039;-70
2023/07/01 11:10:57;;;;;;;0.30;0.30;;;18.70;99.90;;;;;;5117627;27;20371;-70
2023/07/01 11:13:24;;;;;;;0.40;0.40;;;18.70;99.90;;;;;;5135699;27;20038;-70
2023/07/01 11:16:08;;;;;;;0.50;0.50;;;18.70;99.90;;;;;;5135496;27;20114;-70
2023/07/01 11:18:44;;;;;;;0.60;0.60;;;18.60;99.90;;;;;;5135404;27;20083;-70
2023/07/01 11:21:11;;;;;;;0.30;0.30;;;18.70;99.90;;;;;;5134998;27;20043;-71
2023/07/01 11:23:55;;;;;;;0.30;0.30;;;18.80;99.90;;;;;;5135149;27;20435;-70
2023/07/01 11:26:26;;;;;;;0.40;0.40;;;18.90;99.90;;;;;;5135044;27;20043;-71
2023/07/01 11:28:52;;;;;;;0.85;0.85;;;19.00;99.90;;;;;;5134981;27;20039;-71
2023/07/01 11:31:24;;;;;;;0.40;0.40;;;19.00;99.90;;;;;;5134963;27;20062;-70
2023/07/01 11:33:52;;;;;;;0.40;0.40;;;19.10;99.90;;;;;;5134718;27;20042;-71
2023/07/01 11:36:20;;;;;;;0.30;0.30;;;19.00;99.90;;;;;;5134876;27;20046;-70
2023/07/01 11:38:47;;;;;;;0.40;0.40;;;19.10;99.90;;;;;;5134836;27;20035;-70
2023/07/01 11:41:19;;;;;;;0.30;0.30;;;19.00;99.90;;;;;;5135089;27;20404;-70
2023/07/01 11:43:45;;;;;;;0.85;0.85;;;19.00;99.90;;;;;;5134794;27;20039;-70
2023/07/01 11:46:12;;;;;;;0.57;0.57;;;19.10;99.90;;;;;;5134731;27;20051;-70
2023/07/01 11:48:39;;;;;;;0.30;0.30;;;19.10;99.90;;;;;;5134765;27;20031;-70
2023/07/01 11:51:05;;;;;;;0.30;0.30;;;19.10;99.90;;;;;;5134764;27;20039;-70
2023/07/01 11:53:31;;;;;;;0.40;0.40;;;19.10;99.90;;;;;;5134779;27;20377;-70
2023/07/01 11:55:58;;;;;;;0.40;0.40;;;19.10;99.90;;;;;;5135341;28;20474;-71
2023/07/01 11:58:32;;;;;;;0.73;0.73;;;19.30;99.90;;;;;;5134752;28;20035;-71
2023/07/01 12:00:58;;;;;;;0.30;0.30;;;19.50;99.90;;;;;;5134427;28;20047;-71
2023/07/01 12:03:25;;;;;;;0.60;0.60;;;19.60;99.90;;;;;;5134882;28;20046;-70
2023/07/01 12:05:51;;;;;;;0.40;0.40;;;19.70;99.90;;;;;;5135252;28;20043;-71
2023/07/01 12:08:17;;;;;;;0.55;0.55;;;19.80;99.90;;;;;;5134255;28;20467;-70
2023/07/01 12:10:42;;;;;;;2.53;0.97;;;19.80;99.90;;;;;;5134483;28;20043;-71
2023/07/01 12:13:28;;;;;;;0.50;0.50;;;19.90;99.90;;;;;;5134547;28;20050;-71
2023/07/01 12:15:57;;;;;;;0.30;0.30;;;19.90;99.90;;;;;;5135053;28;20378;-70
2023/07/01 12:18:28;;;;;;;0.60;0.60;;;19.90;99.90;;;;;;5134415;28;20031;-70
2023/07/01 12:20:54;;;;;;;0.35;0.35;;;19.80;99.90;;;;;;5134578;28;20507;-70
2023/07/01 12:23:20;;;;;;;0.30;0.30;;;19.80;99.90;;;;;;5134374;28;20127;-70
2023/07/01 12:25:45;;;;;;;0.30;0.30;;;19.80;99.90;;;;;;5134510;28;20118;-70
2023/07/01 12:28:11;;;;;;;0.50;0.50;;;19.70;99.90;;;;;;5134214;28;20549;-71
2023/07/01 12:30:37;;;;;;;0.30;0.30;;;19.70;99.90;;;;;;5134691;28;20459;-70
2023/07/01 12:33:03;;;;;;;0.30;0.30;;;19.60;99.90;;;;;;5134723;28;20088;-71
2023/07/01 12:35:29;;;;;;;0.30;0.30;;;19.60;99.90;;;;;;5134283;28;20039;-71
2023/07/01 12:37:59;;;;;;;0.30;0.30;;;19.60;99.90;;;;;;5134354;28;20043;-71
2023/07/01 12:40:27;;;;;;;0.30;0.30;;;19.60;99.90;;;;;;5134418;28;20049;-70
2023/07/01 12:42:53;;;;;;;0.30;0.30;;;19.70;99.90;;;;;;5134646;28;20475;-72
2023/07/01 12:45:18;;;;;;;0.47;0.47;;;19.80;99.90;;;;;;5136658;27;20123;-72
2023/07/01 12:47:44;;;;;;;0.30;0.30;;;19.80;99.90;;;;;;5137990;27;20039;-71
2023/07/01 12:50:12;;;;;;;0.80;0.80;;;19.80;99.90;;;;;;5138097;27;20039;-71